createdAt,value
2023-03-21T00:00:45.517Z,72.47
2023-03-21T00:03:12.446Z,72.45
2023-03-21T00:05:42.384Z,72.28
2023-03-21T00:08:09.761Z,73.36
2023-03-21T00:10:42.245Z,73.62
2023-03-21T00:13:11.094Z,71.87
2023-03-21T00:15:46.176Z,71.32
2023-03-21T00:18:15.868Z,72.15
2023-03-21T00:20:44.249Z,72.69
2023-03-21T00:23:11.013Z,73.63
2023-03-21T00:25:38.134Z,72.07
2023-03-21T00:28:08.631Z,72.33
2023-03-21T00:30:35.664Z,72.57
2023-03-21T00:33:12.053Z,73.97
2023-03-21T00:36:01.719Z,74.31
2023-03-21T00:38:30.037Z,74.76
2023-03-21T00:40:58.276Z,74.93
2023-03-21T00:43:28.632Z,74.66
2023-03-21T00:45:57.433Z,74.67
2023-03-21T00:48:24.920Z,74.47
2023-03-21T00:50:56.227Z,74.94
2023-03-21T00:53:23.779Z,74.92
2023-03-21T00:55:50.741Z,74.13
2023-03-21T00:58:18.613Z,73.43
2023-03-21T01:00:46.007Z,73.51
2023-03-21T01:03:24.393Z,74.58
2023-03-21T01:05:53.559Z,74.51
2023-03-21T01:08:29.324Z,74.34
2023-03-21T01:11:03.946Z,74.43
2023-03-21T01:13:31.870Z,73.30
2023-03-21T01:16:06.916Z,72.64
2023-03-21T01:18:36.866Z,74.52
2023-03-21T01:21:09.878Z,74.78
2023-03-21T01:23:38.238Z,75.82
2023-03-21T01:26:06.244Z,75.44
2023-03-21T01:28:34.108Z,74.89
2023-03-21T01:31:03.860Z,75.27
2023-03-21T01:33:32.080Z,75.87
2023-03-21T01:36:10.251Z,76.70
2023-03-21T01:38:40.969Z,76.40
2023-03-21T01:41:19.976Z,76.52
2023-03-21T01:43:48.529Z,77.05
2023-03-21T01:46:47.850Z,76.65
2023-03-21T01:49:45.511Z,75.88
2023-03-21T01:52:36.605Z,75.23
2023-03-21T01:55:14.214Z,75.02
2023-03-21T01:58:12.304Z,74.58
2023-03-21T02:00:58.552Z,74.57
2023-03-21T02:03:36.264Z,72.87
2023-03-21T02:06:40.042Z,72.70
2023-03-21T02:09:26.354Z,73.21
2023-03-21T02:11:55.834Z,73.17
2023-03-21T02:14:29.530Z,72.93
2023-03-21T02:17:18.824Z,72.88
2023-03-21T02:20:38.736Z,72.54
2023-03-21T02:24:16.199Z,73.66
2023-03-21T02:27:05.089Z,75.16
2023-03-21T02:30:29.621Z,73.65
2023-03-21T02:33:42.397Z,73.96
2023-03-21T02:36:24.676Z,72.72
2023-03-21T02:39:07.003Z,73.86
2023-03-21T02:41:48.078Z,74.04
2023-03-21T02:44:27.379Z,73.66
2023-03-21T02:47:06.336Z,73.72
2023-03-21T02:49:43.694Z,73.87
2023-03-21T02:52:35.672Z,73.37
2023-03-21T02:55:14.607Z,73.29
2023-03-21T02:57:54.666Z,73.14
2023-03-21T03:00:29.052Z,73.59
2023-03-21T03:03:08.132Z,73.25
2023-03-21T03:05:43.402Z,73.32
2023-03-21T03:08:38.534Z,72.81
2023-03-21T03:11:26.052Z,72.57
2023-03-21T03:17:22.991Z,72.27
2023-03-21T03:20:16.966Z,72.95
2023-03-21T03:22:57.864Z,72.74
2023-03-21T03:25:42.525Z,72.09
2023-03-21T03:28:19.715Z,72.30
2023-03-21T03:31:07.131Z,72.19
2023-03-21T03:33:45.769Z,72.42
2023-03-21T03:36:31.090Z,72.26
2023-03-21T03:39:03.782Z,71.75
2023-03-21T03:41:57.708Z,71.97
2023-03-21T03:44:24.630Z,72.09
2023-03-21T03:47:03.778Z,72.52
2023-03-21T03:49:39.467Z,73.20
2023-03-21T03:52:16.064Z,73.73
2023-03-21T03:54:52.490Z,74.43
2023-03-21T03:57:22.277Z,74.66
2023-03-21T03:59:50.759Z,74.40
2023-03-21T04:02:23.176Z,74.75
2023-03-21T04:04:50.581Z,75.09
2023-03-21T04:07:26.259Z,74.40
2023-03-21T04:09:55.369Z,74.61
2023-03-21T04:12:22.370Z,75.07
2023-03-21T04:15:13.302Z,74.84
2023-03-21T04:17:45.048Z,74.86
2023-03-21T04:20:20.759Z,74.88
2023-03-21T04:22:53.931Z,74.86
2023-03-21T04:25:32.610Z,74.91
2023-03-21T04:28:01.070Z,74.51
2023-03-21T04:30:43.434Z,73.80
2023-03-21T04:33:19.225Z,72.90
2023-03-21T04:35:52.741Z,73.48
2023-03-21T04:38:20.094Z,73.43
2023-03-21T04:40:46.932Z,73.35
2023-03-21T04:43:13.734Z,73.15
2023-03-21T04:45:45.079Z,73.98
2023-03-21T04:48:11.999Z,74.32
2023-03-21T04:50:38.970Z,75.15
2023-03-21T04:53:05.889Z,75.23
2023-03-21T04:55:32.698Z,74.43
2023-03-21T04:57:59.643Z,74.16
2023-03-21T05:00:26.789Z,73.62
2023-03-21T05:02:55.015Z,73.73
2023-03-21T05:05:21.973Z,73.83
2023-03-21T05:07:48.921Z,74.43
2023-03-21T05:10:16.047Z,73.54
2023-03-21T05:12:42.930Z,73.53
2023-03-21T05:15:10.466Z,73.13
2023-03-21T05:17:37.867Z,73.46
2023-03-21T05:20:07.882Z,73.73
2023-03-21T05:22:34.908Z,74.78
2023-03-21T05:25:02.274Z,75.34
2023-03-21T05:27:38.107Z,75.20
2023-03-21T05:30:14.013Z,76.23
2023-03-21T05:32:41.825Z,76.73
2023-03-21T05:35:13.133Z,76.72
2023-03-21T05:37:40.418Z,76.61
2023-03-21T05:40:09.557Z,76.86
2023-03-21T05:42:39.023Z,76.64
2023-03-21T05:45:16.595Z,76.41
2023-03-21T05:47:43.817Z,76.17
2023-03-21T05:50:15.015Z,75.48
2023-03-21T05:52:45.248Z,74.98
2023-03-21T05:55:15.147Z,76.32
2023-03-21T05:57:42.934Z,77.30
2023-03-21T06:00:18.858Z,76.66
2023-03-21T06:03:00.844Z,76.63
2023-03-21T06:05:51.869Z,77.03
2023-03-21T06:08:23.846Z,75.15
2023-03-21T06:10:51.199Z,75.47
2023-03-21T06:13:18.580Z,76.47
2023-03-21T06:15:45.532Z,76.38
2023-03-21T06:18:17.364Z,74.62
2023-03-21T06:21:02.651Z,74.54
2023-03-21T06:23:30.463Z,76.16
2023-03-21T06:25:58.014Z,76.34
2023-03-21T06:28:26.462Z,76.05
2023-03-21T06:30:53.680Z,76.25
2023-03-21T06:33:24.605Z,75.90
2023-03-21T06:35:52.761Z,75.61
2023-03-21T06:38:21.826Z,76.38
2023-03-21T06:40:49.834Z,77.17
2023-03-21T06:43:17.551Z,76.86
2023-03-21T06:45:47.265Z,77.75
2023-03-21T06:48:15.260Z,76.47
2023-03-21T06:50:53.782Z,75.34
2023-03-21T06:53:32.169Z,74.58
2023-03-21T06:56:25.944Z,74.21
2023-03-21T06:58:59.795Z,73.69
2023-03-21T07:01:48.550Z,72.96
2023-03-21T07:04:26.354Z,67.08
2023-03-21T07:06:58.237Z,64.81
2023-03-21T07:09:31.979Z,58.07
2023-03-21T07:12:06.424Z,56.08
2023-03-21T07:15:09.842Z,52.57
2023-03-21T07:17:38.126Z,51.83
2023-03-21T07:20:10.902Z,50.38
2023-03-21T07:22:44.912Z,51.52
2023-03-21T07:25:14.038Z,56.31
2023-03-21T07:27:46.876Z,54.40
2023-03-21T07:30:19.971Z,51.60
2023-03-21T07:32:58.784Z,50.36
2023-03-21T07:35:28.451Z,46.91
2023-03-21T07:37:56.169Z,45.65
2023-03-21T07:40:28.370Z,44.37
2023-03-21T07:42:56.124Z,43.48
2023-03-21T07:45:37.291Z,49.34
2023-03-21T07:48:08.599Z,44.49
2023-03-21T07:50:37.292Z,46.52
2023-03-21T07:53:10.486Z,46.18
2023-03-21T07:55:44.251Z,45.25
2023-03-21T07:58:11.283Z,49.06
2023-03-21T08:00:38.496Z,49.90
2023-03-21T08:03:05.388Z,54.20
2023-03-21T08:05:36.195Z,55.17
2023-03-21T08:08:04.650Z,53.53
2023-03-21T08:10:31.472Z,51.93
2023-03-21T08:13:00.837Z,47.53
2023-03-21T08:15:31.830Z,47.57
2023-03-21T08:18:00.029Z,49.53
2023-03-21T08:20:27.882Z,46.26
2023-03-21T08:22:54.904Z,50.23
2023-03-21T08:25:23.094Z,48.18
2023-03-21T08:27:51.513Z,44.23
2023-03-21T08:30:28.093Z,40.82
2023-03-21T08:33:00.523Z,37.33
2023-03-21T08:35:28.902Z,35.01
2023-03-21T08:37:59.257Z,34.86
2023-03-21T08:40:26.241Z,32.39
2023-03-21T08:42:53.217Z,34.07
2023-03-21T08:45:21.811Z,35.52
2023-03-21T08:47:50.758Z,32.26
2023-03-21T08:50:20.087Z,29.55
2023-03-21T08:52:52.064Z,29.35
2023-03-21T08:55:19.472Z,29.73
2023-03-21T08:57:46.817Z,31.09
2023-03-21T09:00:17.285Z,33.27
2023-03-21T09:02:49.695Z,32.94
2023-03-21T09:05:17.156Z,32.67
2023-03-21T09:07:45.354Z,32.79
2023-03-21T09:10:20.745Z,34.90
2023-03-21T09:12:49.777Z,34.62
2023-03-21T09:15:16.901Z,38.76
2023-03-21T09:17:45.244Z,39.25
2023-03-21T09:20:13.728Z,39.69
2023-03-21T09:22:42.738Z,39.24
2023-03-21T09:25:09.886Z,40.58
2023-03-21T09:27:37.983Z,39.50
2023-03-21T09:30:07.946Z,36.28
2023-03-21T09:32:34.887Z,35.03
2023-03-21T09:35:03.361Z,34.05
2023-03-21T09:37:30.179Z,38.81
2023-03-21T09:39:57.050Z,37.48
2023-03-21T09:42:42.528Z,35.77
2023-03-21T09:45:19.190Z,33.72
2023-03-21T09:47:48.979Z,33.77
2023-03-21T09:50:22.632Z,35.53
2023-03-21T09:52:57.010Z,34.33
2023-03-21T09:55:27.427Z,33.19
2023-03-21T09:58:06.663Z,33.47
2023-03-21T10:00:43.971Z,36.84
2023-03-21T10:03:20.272Z,36.51
2023-03-21T10:05:49.425Z,35.70
2023-03-21T10:08:24.766Z,35.02
2023-03-21T10:10:56.573Z,33.90
2023-03-21T10:13:27.954Z,33.01
2023-03-21T10:15:57.312Z,33.31
2023-03-21T10:18:30.676Z,33.44
2023-03-21T10:21:00.014Z,35.44
2023-03-21T10:23:29.784Z,36.69
2023-03-21T10:26:01.112Z,35.76
2023-03-21T10:28:46.097Z,37.61
2023-03-21T10:31:22.996Z,38.18
2023-03-21T10:33:51.344Z,37.05
2023-03-21T10:36:23.094Z,36.12
2023-03-21T10:38:54.749Z,34.43
2023-03-21T10:41:22.903Z,34.19
2023-03-21T10:44:08.252Z,33.95
2023-03-21T10:46:36.325Z,33.78
2023-03-21T10:49:07.504Z,35.00
2023-03-21T10:51:39.318Z,34.08
2023-03-21T10:54:13.736Z,34.81
2023-03-21T10:56:57.537Z,38.89
2023-03-21T10:59:33.203Z,38.38
2023-03-21T11:02:05.377Z,37.91
2023-03-21T11:04:33.929Z,36.97
2023-03-21T11:07:06.094Z,36.55
2023-03-21T11:09:46.998Z,37.13
2023-03-21T11:12:16.966Z,38.23
2023-03-21T11:14:46.898Z,40.26
2023-03-21T11:17:24.930Z,40.59
2023-03-21T11:19:54.101Z,39.66
2023-03-21T11:22:25.624Z,40.05
2023-03-21T11:24:59.058Z,41.31
2023-03-21T11:27:28.833Z,39.98
2023-03-21T11:29:58.544Z,40.06
2023-03-21T11:32:33.447Z,39.21
2023-03-21T11:35:04.481Z,39.25
2023-03-21T11:37:39.771Z,38.94
2023-03-21T11:40:20.561Z,40.17
2023-03-21T11:42:49.965Z,41.22
2023-03-21T11:45:21.311Z,41.57
2023-03-21T11:47:51.554Z,41.84
2023-03-21T11:50:27.481Z,42.62
2023-03-21T11:53:17.481Z,43.57
2023-03-21T11:56:03.867Z,42.36
2023-03-21T11:58:46.531Z,41.37
2023-03-21T12:01:26.567Z,42.95
2023-03-21T12:04:04.216Z,42.91
2023-03-21T12:06:37.631Z,42.73
2023-03-21T12:09:29.533Z,45.09
2023-03-21T12:12:16.729Z,45.71
2023-03-21T12:15:00.021Z,44.41
2023-03-21T12:17:44.310Z,44.76
2023-03-21T12:20:30.268Z,44.95
2023-03-21T12:23:21.287Z,45.86
2023-03-21T12:25:57.238Z,46.38
2023-03-21T12:28:46.551Z,46.70
2023-03-21T12:31:27.278Z,45.82
2023-03-21T12:34:19.493Z,45.15
2023-03-21T12:37:05.621Z,44.95
2023-03-21T12:39:37.205Z,45.31
2023-03-21T12:42:41.186Z,44.82
2023-03-21T12:45:19.010Z,44.48
2023-03-21T12:47:53.074Z,44.62
2023-03-21T12:50:26.086Z,45.26
2023-03-21T12:52:59.821Z,46.00
2023-03-21T12:55:31.790Z,45.02
2023-03-21T12:58:05.494Z,45.71
2023-03-21T13:00:42.278Z,45.36
2023-03-21T13:03:15.802Z,44.76
2023-03-21T13:05:50.515Z,43.87
2023-03-21T13:08:27.166Z,44.17
2023-03-21T13:10:59.008Z,43.93
2023-03-21T13:13:37.251Z,44.65
2023-03-21T13:16:12.613Z,44.76
2023-03-21T13:19:00.048Z,45.22
2023-03-21T13:21:50.205Z,45.24
2023-03-21T13:24:28.245Z,45.38
2023-03-21T13:27:03.952Z,44.59
2023-03-21T13:29:44.608Z,44.60
2023-03-21T13:32:25.421Z,45.22
2023-03-21T13:35:00.093Z,44.85
2023-03-21T13:37:32.507Z,45.02
2023-03-21T13:40:06.235Z,45.54
2023-03-21T13:42:33.905Z,45.56
2023-03-21T13:45:11.021Z,44.25
2023-03-21T13:47:50.747Z,44.81
2023-03-21T13:50:34.842Z,44.82
2023-03-21T13:53:32.316Z,45.67
2023-03-21T13:56:24.459Z,45.65
2023-03-21T13:59:11.474Z,46.16
2023-03-21T14:01:59.544Z,44.75
2023-03-21T14:04:41.881Z,44.39
2023-03-21T14:07:28.176Z,45.00
2023-03-21T14:10:04.412Z,45.38
2023-03-21T14:12:39.808Z,45.68
2023-03-21T14:15:18.079Z,44.91
2023-03-21T14:17:54.048Z,45.82
2023-03-21T14:20:25.356Z,45.59
2023-03-21T14:22:52.669Z,46.48
2023-03-21T14:25:24.329Z,45.83
2023-03-21T14:27:55.726Z,46.54
2023-03-21T14:30:27.138Z,46.83
2023-03-21T14:32:58.620Z,47.69
2023-03-21T14:35:30.458Z,47.01
2023-03-21T14:38:01.390Z,46.89
2023-03-21T14:40:29.607Z,46.19
2023-03-21T14:42:56.650Z,46.54
2023-03-21T14:45:28.207Z,46.66
2023-03-21T14:47:59.630Z,45.95
2023-03-21T14:50:38.649Z,45.22
2023-03-21T14:53:07.013Z,46.01
2023-03-21T14:55:42.398Z,46.10
2023-03-21T14:58:13.943Z,47.65
2023-03-21T15:00:41.173Z,46.73
2023-03-21T15:03:12.937Z,47.46
2023-03-21T15:05:42.540Z,48.54
2023-03-21T15:08:15.862Z,48.57
2023-03-21T15:11:06.130Z,48.31
2023-03-21T15:13:37.624Z,48.41
2023-03-21T15:16:06.129Z,47.50
2023-03-21T15:18:39.760Z,48.31
2023-03-21T15:21:15.876Z,47.82
2023-03-21T15:23:46.518Z,48.68
2023-03-21T15:26:16.513Z,47.82
2023-03-21T15:28:46.392Z,48.84
2023-03-21T15:31:23.570Z,49.40
2023-03-21T15:33:55.451Z,48.85
2023-03-21T15:36:27.296Z,49.42
2023-03-21T15:38:55.615Z,48.69
2023-03-21T15:41:29.694Z,48.85
2023-03-21T15:44:11.236Z,49.85
2023-03-21T15:46:43.710Z,49.89
2023-03-21T15:49:24.196Z,50.39
2023-03-21T15:51:56.169Z,50.26
2023-03-21T15:54:28.370Z,50.68
2023-03-21T15:56:59.064Z,50.79
2023-03-21T15:59:32.831Z,50.19
2023-03-21T16:02:01.316Z,51.10
2023-03-21T16:04:29.776Z,50.40
2023-03-21T16:07:00.830Z,50.88
2023-03-21T16:09:37.820Z,51.45
2023-03-21T16:12:12.012Z,51.48
2023-03-21T16:14:39.322Z,51.79
2023-03-21T16:17:25.949Z,52.44
2023-03-21T16:19:54.743Z,51.91
2023-03-21T16:22:22.293Z,51.94
2023-03-21T16:24:49.432Z,52.00
2023-03-21T16:27:20.510Z,52.26
2023-03-21T16:29:48.759Z,52.04
2023-03-21T16:32:17.608Z,52.40
2023-03-21T16:34:44.584Z,52.54
2023-03-21T16:37:13.786Z,53.37
2023-03-21T16:39:41.375Z,53.71
2023-03-21T16:42:11.110Z,53.14
2023-03-21T16:44:37.985Z,52.98
2023-03-21T16:47:13.369Z,53.93
2023-03-21T16:49:40.203Z,54.58
2023-03-21T16:52:07.192Z,55.13
2023-03-21T16:54:35.306Z,54.66
2023-03-21T16:57:02.818Z,54.74
2023-03-21T16:59:30.101Z,55.01
2023-03-21T17:01:57.346Z,54.90
2023-03-21T17:04:24.164Z,55.76
2023-03-21T17:06:53.760Z,56.25
2023-03-21T17:09:24.676Z,55.33
2023-03-21T17:11:52.930Z,56.54
2023-03-21T17:14:19.760Z,56.59
2023-03-21T17:16:46.987Z,56.87
2023-03-21T17:19:18.111Z,57.39
2023-03-21T17:21:45.546Z,56.57
2023-03-21T17:24:12.986Z,57.40
2023-03-21T17:26:40.580Z,57.39
2023-03-21T17:29:14.224Z,57.46
2023-03-21T17:31:41.522Z,57.20
2023-03-21T17:34:08.618Z,58.52
2023-03-21T17:36:38.283Z,58.41
2023-03-21T17:39:08.370Z,60.68
2023-03-21T17:41:35.623Z,61.32
2023-03-21T17:44:02.503Z,61.61
2023-03-21T17:46:36.230Z,60.86
2023-03-21T17:49:03.807Z,60.12
2023-03-21T17:51:31.634Z,59.85
2023-03-21T17:53:59.555Z,59.61
2023-03-21T17:56:29.187Z,59.42
2023-03-21T17:58:57.900Z,60.25
2023-03-21T18:01:24.856Z,60.58
2023-03-21T18:03:54.057Z,61.06
2023-03-21T18:06:27.288Z,61.29
2023-03-21T18:08:55.391Z,60.28
2023-03-21T18:11:24.388Z,60.87
2023-03-21T18:13:51.484Z,62.69
2023-03-21T18:16:22.048Z,65.13
2023-03-21T18:18:49.378Z,66.42
2023-03-21T18:21:20.232Z,66.52
2023-03-21T18:23:47.975Z,67.12
2023-03-21T18:26:18.963Z,65.34
2023-03-21T18:28:47.143Z,65.62
2023-03-21T18:31:20.536Z,66.89
2023-03-21T18:33:49.493Z,66.63
2023-03-21T18:36:25.392Z,66.33
2023-03-21T18:38:55.256Z,65.88
2023-03-21T18:41:22.184Z,65.52
2023-03-21T18:44:14.725Z,62.36
2023-03-21T18:46:36.740Z,61.84
2023-03-21T18:49:33.517Z,62.93
2023-03-21T18:51:52.453Z,64.56
2023-03-21T18:54:19.615Z,64.98
2023-03-21T18:59:33.940Z,65.80
2023-03-21T19:02:02.085Z,65.81
2023-03-21T19:04:30.484Z,65.89
2023-03-21T19:06:59.980Z,65.81
2023-03-21T19:09:30.931Z,65.86
2023-03-21T19:11:58.407Z,65.09
2023-03-21T19:14:25.259Z,65.80
2023-03-21T19:19:39.295Z,67.70
2023-03-21T19:22:07.575Z,67.85
2023-03-21T19:24:34.983Z,67.23
2023-03-21T19:27:02.135Z,68.34
2023-03-21T19:29:29.053Z,68.92
2023-03-21T19:31:55.944Z,69.48
2023-03-21T19:34:23.441Z,70.89
2023-03-21T19:36:51.964Z,71.10
2023-03-21T19:39:21.238Z,70.73
2023-03-21T19:41:48.509Z,70.41
2023-03-21T19:44:19.799Z,70.14
2023-03-21T19:46:46.832Z,70.41
2023-03-21T19:49:13.882Z,72.17
2023-03-21T19:51:40.711Z,73.20
2023-03-21T19:54:07.716Z,73.24
2023-03-21T19:56:37.594Z,73.51
2023-03-21T19:59:06.896Z,73.63
2023-03-21T20:01:33.715Z,72.92
2023-03-21T20:04:00.583Z,72.80
2023-03-21T20:06:27.855Z,71.10
2023-03-21T20:09:37.970Z,71.41
2023-03-21T20:11:43.465Z,70.60
2023-03-21T20:14:10.392Z,69.89
2023-03-21T20:16:37.512Z,71.06
2023-03-21T20:19:05.355Z,70.65
2023-03-21T20:21:44.498Z,70.42
2023-03-21T20:24:14.947Z,69.68
2023-03-21T20:26:44.038Z,70.01
2023-03-21T20:30:00.178Z,70.51
2023-03-21T20:31:57.988Z,70.60
2023-03-21T20:34:25.027Z,70.59
2023-03-21T20:36:52.146Z,70.14
2023-03-21T20:39:18.932Z,70.28
2023-03-21T20:41:49.028Z,70.29
2023-03-21T20:47:03.965Z,70.68
2023-03-21T20:49:30.916Z,70.85
2023-03-21T20:54:44.723Z,70.43
2023-03-21T20:57:12.939Z,70.47
2023-03-21T20:59:40.372Z,70.44
2023-03-21T21:02:07.181Z,70.30
2023-03-21T21:04:49.709Z,69.81
2023-03-21T21:07:23.738Z,69.81
2023-03-21T21:09:50.486Z,69.76
2023-03-21T21:12:18.664Z,69.96
2023-03-21T21:14:45.681Z,70.99
2023-03-21T21:17:50.945Z,72.74
2023-03-21T21:19:59.573Z,73.89
2023-03-21T21:22:26.486Z,73.72
2023-03-21T21:24:53.302Z,73.40
2023-03-21T21:27:21.839Z,73.58
2023-03-21T21:29:48.712Z,75.36
2023-03-21T21:32:15.505Z,75.61
2023-03-21T21:34:42.680Z,76.14
2023-03-21T21:37:09.779Z,75.70
2023-03-21T21:39:36.548Z,75.91
2023-03-21T21:42:03.802Z,75.66
2023-03-21T21:44:32.243Z,76.58
2023-03-21T21:46:59.258Z,76.49
2023-03-21T21:49:26.709Z,76.19
2023-03-21T21:51:53.503Z,76.19
2023-03-21T21:54:20.440Z,76.15
2023-03-21T21:56:47.461Z,76.16
2023-03-21T21:59:14.800Z,75.88
2023-03-21T22:01:43.345Z,75.63
2023-03-21T22:04:10.205Z,75.49
2023-03-21T22:06:37.690Z,76.53
2023-03-21T22:09:05.573Z,76.39
2023-03-21T22:11:33.105Z,77.30
2023-03-21T22:14:00.001Z,77.27
2023-03-21T22:16:27.220Z,77.63
2023-03-21T22:18:55.360Z,76.99
2023-03-21T22:21:22.367Z,76.38
2023-03-21T22:23:49.156Z,75.72
2023-03-21T22:26:16.310Z,75.30
2023-03-21T22:28:43.645Z,75.39
2023-03-21T22:31:14.503Z,78.13
2023-03-21T22:33:41.428Z,79.33
2023-03-21T22:36:11.331Z,78.47
2023-03-21T22:38:38.321Z,78.29
2023-03-21T22:41:06.850Z,78.65
2023-03-21T22:43:34.552Z,78.75
2023-03-21T22:46:02.531Z,77.62
2023-03-21T22:48:30.117Z,77.85
2023-03-21T22:50:57.606Z,77.45
2023-03-21T22:53:26.043Z,78.06
2023-03-21T22:55:52.995Z,77.93
2023-03-21T22:58:19.945Z,77.31
2023-03-21T23:00:47.502Z,77.73
2023-03-21T23:03:15.193Z,77.88
2023-03-21T23:05:42.979Z,77.59
2023-03-21T23:08:10.041Z,77.80
2023-03-21T23:10:39.808Z,78.97
2023-03-21T23:13:06.872Z,79.13
2023-03-21T23:15:34.027Z,79.10
2023-03-21T23:18:01.066Z,79.33
2023-03-21T23:20:28.032Z,78.50
2023-03-21T23:22:54.943Z,78.80
2023-03-21T23:25:21.920Z,79.04
2023-03-21T23:27:50.479Z,78.84
2023-03-21T23:30:17.548Z,79.38
2023-03-21T23:32:44.623Z,78.85
2023-03-21T23:35:11.479Z,78.93
2023-03-21T23:37:38.840Z,79.79
2023-03-21T23:40:07.259Z,80.57
2023-03-21T23:42:34.059Z,79.71
2023-03-21T23:45:02.246Z,79.91
2023-03-21T23:47:29.215Z,79.95
2023-03-21T23:49:56.276Z,80.34
2023-03-21T23:52:23.480Z,80.62
2023-03-21T23:54:50.346Z,80.08
2023-03-21T23:57:17.214Z,79.98
2023-03-21T23:59:44.497Z,80.21
